sensor_id;sensor_type;location;lat;lon;timestamp;temperature;humidity
12957;DHT22;6543;48.836;10.092;2023-03-14T00:00:05;10.00;99.90
12957;DHT22;6543;48.836;10.092;2023-03-14T00:02:33;10.10;99.90
12957;DHT22;6543;48.836;10.092;2023-03-14T00:05:00;10.20;99.90
12957;DHT22;6543;48.836;10.092;2023-03-14T00:07:32;10.20;99.90
12957;DHT22;6543;48.836;10.092;2023-03-14T00:10:01;10.20;99.90
12957;DHT22;6543;48.836;10.092;2023-03-14T00:12:31;10.30;99.90
12957;DHT22;6543;48.836;10.092;2023-03-14T00:14:58;10.30;99.90
12957;DHT22;6543;48.836;10.092;2023-03-14T00:17:29;10.40;99.90
12957;DHT22;6543;48.836;10.092;2023-03-14T00:19:56;10.40;99.90
12957;DHT22;6543;48.836;10.092;2023-03-14T00:22:29;10.80;99.90
12957;DHT22;6543;48.836;10.092;2023-03-14T00:24:56;10.40;99.90
12957;DHT22;6543;48.836;10.092;2023-03-14T00:27:23;10.50;99.90
12957;DHT22;6543;48.836;10.092;2023-03-14T00:29:51;10.50;99.90
12957;DHT22;6543;48.836;10.092;2023-03-14T00:32:18;10.50;99.90
12957;DHT22;6543;48.836;10.092;2023-03-14T00:34:45;10.50;99.90
12957;DHT22;6543;48.836;10.092;2023-03-14T00:37:12;10.40;99.90
12957;DHT22;6543;48.836;10.092;2023-03-14T00:39:39;10.40;99.90
12957;DHT22;6543;48.836;10.092;2023-03-14T00:42:06;10.50;99.90
12957;DHT22;6543;48.836;10.092;2023-03-14T00:44:33;11.00;99.90
12957;DHT22;6543;48.836;10.092;2023-03-14T00:47:01;10.50;99.90
12957;DHT22;6543;48.836;10.092;2023-03-14T00:49:28;10.50;99.90
12957;DHT22;6543;48.836;10.092;2023-03-14T00:51:55;10.50;99.90
12957;DHT22;6543;48.836;10.092;2023-03-14T00:54:22;10.40;99.90
12957;DHT22;6543;48.836;10.092;2023-03-14T00:56:49;10.40;99.90
12957;DHT22;6543;48.836;10.092;2023-03-14T00:59:16;10.40;99.90
12957;DHT22;6543;48.836;10.092;2023-03-14T01:01:43;10.40;99.90
12957;DHT22;6543;48.836;10.092;2023-03-14T01:04:11;10.40;99.90
12957;DHT22;6543;48.836;10.092;2023-03-14T01:06:39;10.40;99.90
12957;DHT22;6543;48.836;10.092;2023-03-14T01:09:05;10.30;99.90
12957;DHT22;6543;48.836;10.092;2023-03-14T01:11:34;10.30;99.90
12957;DHT22;6543;48.836;10.092;2023-03-14T01:14:03;10.30;99.90
12957;DHT22;6543;48.836;10.092;2023-03-14T01:16:31;10.20;99.90
12957;DHT22;6543;48.836;10.092;2023-03-14T01:18:58;10.20;99.90
12957;DHT22;6543;48.836;10.092;2023-03-14T01:21:29;10.20;99.90
12957;DHT22;6543;48.836;10.092;2023-03-14T01:23:58;10.10;99.90
12957;DHT22;6543;48.836;10.092;2023-03-14T01:26:27;10.10;99.90
12957;DHT22;6543;48.836;10.092;2023-03-14T01:28:55;10.00;99.90
12957;DHT22;6543;48.836;10.092;2023-03-14T01:31:23;11.50;99.90
12957;DHT22;6543;48.836;10.092;2023-03-14T01:33:51;10.00;99.90
12957;DHT22;6543;48.836;10.092;2023-03-14T01:36:18;10.50;99.90
12957;DHT22;6543;48.836;10.092;2023-03-14T01:38:47;9.90;99.90
12957;DHT22;6543;48.836;10.092;2023-03-14T01:41:16;10.00;99.90
12957;DHT22;6543;48.836;10.092;2023-03-14T01:43:44;9.80;99.90
12957;DHT22;6543;48.836;10.092;2023-03-14T01:46:20;9.80;99.90
12957;DHT22;6543;48.836;10.092;2023-03-14T01:48:53;9.80;99.90
12957;DHT22;6543;48.836;10.092;2023-03-14T01:51:25;9.80;99.90
12957;DHT22;6543;48.836;10.092;2023-03-14T01:53:56;9.70;99.90
12957;DHT22;6543;48.836;10.092;2023-03-14T01:56:26;9.70;99.90
12957;DHT22;6543;48.836;10.092;2023-03-14T01:58:53;9.70;99.90
12957;DHT22;6543;48.836;10.092;2023-03-14T02:01:23;9.70;99.90
12957;DHT22;6543;48.836;10.092;2023-03-14T02:03:53;9.70;99.90
12957;DHT22;6543;48.836;10.092;2023-03-14T02:06:24;9.70;99.90
12957;DHT22;6543;48.836;10.092;2023-03-14T02:08:53;9.70;99.90
12957;DHT22;6543;48.836;10.092;2023-03-14T02:11:21;10.70;99.90
12957;DHT22;6543;48.836;10.092;2023-03-14T02:13:48;9.80;99.90
12957;DHT22;6543;48.836;10.092;2023-03-14T02:16:16;9.70;99.90
12957;DHT22;6543;48.836;10.092;2023-03-14T02:18:43;9.80;99.90
12957;DHT22;6543;48.836;10.092;2023-03-14T02:21:15;10.80;99.90
12957;DHT22;6543;48.836;10.092;2023-03-14T02:23:50;9.60;99.90
12957;DHT22;6543;48.836;10.092;2023-03-14T02:26:21;9.50;99.90
12957;DHT22;6543;48.836;10.092;2023-03-14T02:28:50;9.60;99.90
12957;DHT22;6543;48.836;10.092;2023-03-14T02:31:18;9.50;99.90
12957;DHT22;6543;48.836;10.092;2023-03-14T02:33:46;9.50;99.90
12957;DHT22;6543;48.836;10.092;2023-03-14T02:36:14;9.40;99.90
12957;DHT22;6543;48.836;10.092;2023-03-14T02:38:45;9.50;99.90
12957;DHT22;6543;48.836;10.092;2023-03-14T02:41:13;9.40;99.90
12957;DHT22;6543;48.836;10.092;2023-03-14T02:43:40;9.40;99.90
12957;DHT22;6543;48.836;10.092;2023-03-14T02:46:10;9.30;99.90
12957;DHT22;6543;48.836;10.092;2023-03-14T02:48:41;9.30;99.90
12957;DHT22;6543;48.836;10.092;2023-03-14T02:51:10;9.30;99.90
12957;DHT22;6543;48.836;10.092;2023-03-14T02:53:38;9.30;99.90
12957;DHT22;6543;48.836;10.092;2023-03-14T02:56:07;9.30;99.90
12957;DHT22;6543;48.836;10.092;2023-03-14T02:58:35;9.20;99.90
12957;DHT22;6543;48.836;10.092;2023-03-14T03:01:01;9.30;99.90
12957;DHT22;6543;48.836;10.092;2023-03-14T03:03:30;9.30;99.90
12957;DHT22;6543;48.836;10.092;2023-03-14T03:05:57;9.40;99.90
12957;DHT22;6543;48.836;10.092;2023-03-14T03:08:25;9.40;99.90
12957;DHT22;6543;48.836;10.092;2023-03-14T03:10:53;10.60;99.90
12957;DHT22;6543;48.836;10.092;2023-03-14T03:13:20;9.40;99.90
12957;DHT22;6543;48.836;10.092;2023-03-14T03:15:47;9.30;99.90
12957;DHT22;6543;48.836;10.092;2023-03-14T03:18:14;9.50;99.90
12957;DHT22;6543;48.836;10.092;2023-03-14T03:20:42;9.40;99.90
12957;DHT22;6543;48.836;10.092;2023-03-14T03:23:09;9.50;99.90
12957;DHT22;6543;48.836;10.092;2023-03-14T03:25:36;9.50;99.90
12957;DHT22;6543;48.836;10.092;2023-03-14T03:28:03;9.70;99.90
12957;DHT22;6543;48.836;10.092;2023-03-14T03:30:34;9.40;99.90
12957;DHT22;6543;48.836;10.092;2023-03-14T03:33:03;9.50;99.90
12957;DHT22;6543;48.836;10.092;2023-03-14T03:35:30;9.50;99.90
12957;DHT22;6543;48.836;10.092;2023-03-14T03:37:58;9.50;99.90
12957;DHT22;6543;48.836;10.092;2023-03-14T03:40:25;9.70;99.90
12957;DHT22;6543;48.836;10.092;2023-03-14T03:42:52;9.50;99.90
12957;DHT22;6543;48.836;10.092;2023-03-14T03:45:19;9.50;99.90
12957;DHT22;6543;48.836;10.092;2023-03-14T03:47:46;9.50;99.90
12957;DHT22;6543;48.836;10.092;2023-03-14T03:50:13;9.50;99.90
12957;DHT22;6543;48.836;10.092;2023-03-14T03:52:40;9.40;99.90
12957;DHT22;6543;48.836;10.092;2023-03-14T03:55:09;9.50;99.90
12957;DHT22;6543;48.836;10.092;2023-03-14T03:57:36;8.90;99.90
12957;DHT22;6543;48.836;10.092;2023-03-14T04:00:03;9.50;99.90
12957;DHT22;6543;48.836;10.092;2023-03-14T04:02:31;9.50;99.90
12957;DHT22;6543;48.836;10.092;2023-03-14T04:04:58;10.00;99.90
12957;DHT22;6543;48.836;10.092;2023-03-14T04:07:25;9.50;99.90
12957;DHT22;6543;48.836;10.092;2023-03-14T04:09:52;9.40;99.90
12957;DHT22;6543;48.836;10.092;2023-03-14T04:12:20;9.40;99.90
12957;DHT22;6543;48.836;10.092;2023-03-14T04:14:47;9.40;99.90
12957;DHT22;6543;48.836;10.092;2023-03-14T04:17:14;9.90;99.90
12957;DHT22;6543;48.836;10.092;2023-03-14T04:19:41;9.50;99.90
12957;DHT22;6543;48.836;10.092;2023-03-14T04:22:08;9.30;99.90
12957;DHT22;6543;48.836;10.092;2023-03-14T04:24:35;9.30;99.90
12957;DHT22;6543;48.836;10.092;2023-03-14T04:27:01;9.20;99.90
12957;DHT22;6543;48.836;10.092;2023-03-14T04:29:30;9.20;99.90
12957;DHT22;6543;48.836;10.092;2023-03-14T04:31:56;9.20;99.90
12957;DHT22;6543;48.836;10.092;2023-03-14T04:34:23;9.40;99.90
12957;DHT22;6543;48.836;10.092;2023-03-14T04:36:50;9.20;99.90
12957;DHT22;6543;48.836;10.092;2023-03-14T04:39:17;9.10;99.90
12957;DHT22;6543;48.836;10.092;2023-03-14T04:41:44;9.10;99.90
12957;DHT22;6543;48.836;10.092;2023-03-14T04:44:12;9.10;99.90
12957;DHT22;6543;48.836;10.092;2023-03-14T04:46:40;9.10;99.90
12957;DHT22;6543;48.836;10.092;2023-03-14T04:49:07;9.80;99.90
12957;DHT22;6543;48.836;10.092;2023-03-14T04:51:34;9.00;99.90
12957;DHT22;6543;48.836;10.092;2023-03-14T04:54:01;9.10;99.90
12957;DHT22;6543;48.836;10.092;2023-03-14T04:59:50;9.00;99.90
12957;DHT22;6543;48.836;10.092;2023-03-14T05:02:18;8.10;99.90
12957;DHT22;6543;48.836;10.092;2023-03-14T05:04:45;9.30;99.90
12957;DHT22;6543;48.836;10.092;2023-03-14T05:07:12;8.90;99.90
12957;DHT22;6543;48.836;10.092;2023-03-14T05:09:39;8.90;99.90
12957;DHT22;6543;48.836;10.092;2023-03-14T05:12:06;8.90;99.90
12957;DHT22;6543;48.836;10.092;2023-03-14T05:14:33;8.90;99.90
12957;DHT22;6543;48.836;10.092;2023-03-14T05:17:00;8.80;99.90
12957;DHT22;6543;48.836;10.092;2023-03-14T05:19:29;8.80;99.90
12957;DHT22;6543;48.836;10.092;2023-03-14T05:21:56;8.80;99.90
12957;DHT22;6543;48.836;10.092;2023-03-14T05:24:23;9.80;99.90
12957;DHT22;6543;48.836;10.092;2023-03-14T05:26:50;8.80;99.90
12957;DHT22;6543;48.836;10.092;2023-03-14T05:29:17;8.80;99.90
12957;DHT22;6543;48.836;10.092;2023-03-14T05:31:43;8.70;99.90
12957;DHT22;6543;48.836;10.092;2023-03-14T05:34:10;8.90;99.90
12957;DHT22;6543;48.836;10.092;2023-03-14T05:36:39;8.70;99.90
12957;DHT22;6543;48.836;10.092;2023-03-14T05:39:06;8.70;99.90
12957;DHT22;6543;48.836;10.092;2023-03-14T05:41:33;8.80;99.90
12957;DHT22;6543;48.836;10.092;2023-03-14T05:44:01;8.80;99.90
12957;DHT22;6543;48.836;10.092;2023-03-14T05:46:28;8.80;99.90
12957;DHT22;6543;48.836;10.092;2023-03-14T05:48:56;9.10;99.90
12957;DHT22;6543;48.836;10.092;2023-03-14T05:51:23;8.80;99.90
12957;DHT22;6543;48.836;10.092;2023-03-14T05:53:51;9.20;99.90
12957;DHT22;6543;48.836;10.092;2023-03-14T05:56:18;10.10;99.90
12957;DHT22;6543;48.836;10.092;2023-03-14T05:58:45;9.10;99.90
12957;DHT22;6543;48.836;10.092;2023-03-14T06:01:12;8.90;99.90
12957;DHT22;6543;48.836;10.092;2023-03-14T06:03:39;8.90;99.90
12957;DHT22;6543;48.836;10.092;2023-03-14T06:06:06;9.00;99.90
12957;DHT22;6543;48.836;10.092;2023-03-14T06:08:33;9.30;99.90
12957;DHT22;6543;48.836;10.092;2023-03-14T06:11:04;9.20;99.90
12957;DHT22;6543;48.836;10.092;2023-03-14T06:13:31;9.30;99.90
12957;DHT22;6543;48.836;10.092;2023-03-14T06:15:58;10.00;99.90
12957;DHT22;6543;48.836;10.092;2023-03-14T06:18:24;10.80;99.90
12957;DHT22;6543;48.836;10.092;2023-03-14T06:20:53;9.90;99.90
12957;DHT22;6543;48.836;10.092;2023-03-14T06:23:21;8.70;99.90
12957;DHT22;6543;48.836;10.092;2023-03-14T06:25:48;9.40;99.90
12957;DHT22;6543;48.836;10.092;2023-03-14T06:28:16;9.40;99.90
12957;DHT22;6543;48.836;10.092;2023-03-14T06:30:43;9.40;99.90
12957;DHT22;6543;48.836;10.092;2023-03-14T06:33:10;10.40;99.90
12957;DHT22;6543;48.836;10.092;2023-03-14T06:35:37;9.10;99.90
12957;DHT22;6543;48.836;10.092;2023-03-14T06:38:04;9.40;99.90
12957;DHT22;6543;48.836;10.092;2023-03-14T06:40:30;9.40;99.90
12957;DHT22;6543;48.836;10.092;2023-03-14T06:42:57;10.60;99.90
12957;DHT22;6543;48.836;10.092;2023-03-14T06:45:25;9.50;99.90
12957;DHT22;6543;48.836;10.092;2023-03-14T06:47:52;9.60;99.90
12957;DHT22;6543;48.836;10.092;2023-03-14T06:50:19;9.70;99.90
12957;DHT22;6543;48.836;10.092;2023-03-14T06:52:47;9.80;99.90
12957;DHT22;6543;48.836;10.092;2023-03-14T06:55:15;10.00;99.90
12957;DHT22;6543;48.836;10.092;2023-03-14T06:57:42;10.10;99.90
12957;DHT22;6543;48.836;10.092;2023-03-14T07:00:11;10.20;99.90
12957;DHT22;6543;48.836;10.092;2023-03-14T07:02:40;10.30;99.90
12957;DHT22;6543;48.836;10.092;2023-03-14T07:05:07;10.40;99.90
12957;DHT22;6543;48.836;10.092;2023-03-14T07:07:35;10.40;99.90
12957;DHT22;6543;48.836;10.092;2023-03-14T07:10:04;10.40;99.90
12957;DHT22;6543;48.836;10.092;2023-03-14T07:12:32;10.40;99.90
12957;DHT22;6543;48.836;10.092;2023-03-14T07:14:59;10.40;99.90
12957;DHT22;6543;48.836;10.092;2023-03-14T07:17:26;10.30;99.90
12957;DHT22;6543;48.836;10.092;2023-03-14T07:19:55;10.30;99.90
12957;DHT22;6543;48.836;10.092;2023-03-14T07:22:21;10.60;99.90
12957;DHT22;6543;48.836;10.092;2023-03-14T07:24:48;11.80;99.90
12957;DHT22;6543;48.836;10.092;2023-03-14T07:27:15;11.60;99.90
12957;DHT22;6543;48.836;10.092;2023-03-14T07:29:42;11.50;99.90
12957;DHT22;6543;48.836;10.092;2023-03-14T07:32:09;10.60;99.90
12957;DHT22;6543;48.836;10.092;2023-03-14T07:34:40;10.50;99.90
12957;DHT22;6543;48.836;10.092;2023-03-14T07:37:08;11.60;99.90
12957;DHT22;6543;48.836;10.092;2023-03-14T07:39:35;11.40;99.90
12957;DHT22;6543;48.836;10.092;2023-03-14T07:42:02;10.60;99.90
12957;DHT22;6543;48.836;10.092;2023-03-14T07:44:29;10.70;99.90
12957;DHT22;6543;48.836;10.092;2023-03-14T07:46:56;10.90;99.90
12957;DHT22;6543;48.836;10.092;2023-03-14T07:49:24;11.80;99.90
12957;DHT22;6543;48.836;10.092;2023-03-14T07:51:52;11.10;99.90
12957;DHT22;6543;48.836;10.092;2023-03-14T07:54:21;11.30;99.90
12957;DHT22;6543;48.836;10.092;2023-03-14T07:56:49;11.50;99.90
12957;DHT22;6543;48.836;10.092;2023-03-14T07:59:17;10.30;99.90
12957;DHT22;6543;48.836;10.092;2023-03-14T08:01:44;11.40;99.90
12957;DHT22;6543;48.836;10.092;2023-03-14T08:04:11;11.20;99.90
12957;DHT22;6543;48.836;10.092;2023-03-14T08:06:38;12.20;99.90
12957;DHT22;6543;48.836;10.092;2023-03-14T08:09:05;12.70;99.90
12957;DHT22;6543;48.836;10.092;2023-03-14T08:11:34;11.50;99.90
12957;DHT22;6543;48.836;10.092;2023-03-14T08:14:01;12.10;99.90
12957;DHT22;6543;48.836;10.092;2023-03-14T08:16:28;11.80;99.90
12957;DHT22;6543;48.836;10.092;2023-03-14T08:18:55;13.50;99.90
12957;DHT22;6543;48.836;10.092;2023-03-14T08:21:26;12.00;99.90
12957;DHT22;6543;48.836;10.092;2023-03-14T08:23:59;12.10;99.90
12957;DHT22;6543;48.836;10.092;2023-03-14T08:26:29;12.30;99.90
12957;DHT22;6543;48.836;10.092;2023-03-14T08:29:21;10.90;99.90
12957;DHT22;6543;48.836;10.092;2023-03-14T08:32:08;12.40;99.90
12957;DHT22;6543;48.836;10.092;2023-03-14T08:35:20;12.70;99.90
12957;DHT22;6543;48.836;10.092;2023-03-14T08:37:52;13.10;99.90
12957;DHT22;6543;48.836;10.092;2023-03-14T08:40:19;13.00;99.90
12957;DHT22;6543;48.836;10.092;2023-03-14T08:46:11;13.10;99.90
12957;DHT22;6543;48.836;10.092;2023-03-14T08:48:39;14.50;99.90
12957;DHT22;6543;48.836;10.092;2023-03-14T08:51:06;11.80;99.90
12957;DHT22;6543;48.836;10.092;2023-03-14T08:53:36;13.60;99.90
12957;DHT22;6543;48.836;10.092;2023-03-14T08:56:03;13.00;99.90
12957;DHT22;6543;48.836;10.092;2023-03-14T08:58:31;13.10;99.90
12957;DHT22;6543;48.836;10.092;2023-03-14T09:00:59;12.00;99.90
12957;DHT22;6543;48.836;10.092;2023-03-14T09:03:27;13.00;99.90
12957;DHT22;6543;48.836;10.092;2023-03-14T09:05:54;13.10;99.90
12957;DHT22;6543;48.836;10.092;2023-03-14T09:08:21;13.20;99.90
12957;DHT22;6543;48.836;10.092;2023-03-14T09:10:48;14.60;99.90
12957;DHT22;6543;48.836;10.092;2023-03-14T09:13:15;14.40;99.90
12957;DHT22;6543;48.836;10.092;2023-03-14T09:15:42;13.30;99.90
12957;DHT22;6543;48.836;10.092;2023-03-14T09:18:09;14.60;99.90
12957;DHT22;6543;48.836;10.092;2023-03-14T09:20:37;13.80;99.90
12957;DHT22;6543;48.836;10.092;2023-03-14T09:23:04;13.30;99.90
12957;DHT22;6543;48.836;10.092;2023-03-14T09:25:31;14.40;99.90
12957;DHT22;6543;48.836;10.092;2023-03-14T09:27:58;13.40;99.90
12957;DHT22;6543;48.836;10.092;2023-03-14T09:30:25;13.50;99.90
12957;DHT22;6543;48.836;10.092;2023-03-14T09:32:52;13.40;99.90
12957;DHT22;6543;48.836;10.092;2023-03-14T09:35:19;13.90;99.90
12957;DHT22;6543;48.836;10.092;2023-03-14T09:37:48;13.40;99.90
12957;DHT22;6543;48.836;10.092;2023-03-14T09:40:16;13.30;99.90
12957;DHT22;6543;48.836;10.092;2023-03-14T09:42:46;13.40;99.90
12957;DHT22;6543;48.836;10.092;2023-03-14T09:45:18;13.50;99.90
12957;DHT22;6543;48.836;10.092;2023-03-14T09:47:48;13.40;99.90
12957;DHT22;6543;48.836;10.092;2023-03-14T09:50:16;13.40;99.90
12957;DHT22;6543;48.836;10.092;2023-03-14T09:52:45;13.60;99.90
12957;DHT22;6543;48.836;10.092;2023-03-14T09:55:16;13.60;99.90
12957;DHT22;6543;48.836;10.092;2023-03-14T09:57:45;13.10;99.90
12957;DHT22;6543;48.836;10.092;2023-03-14T10:00:16;14.80;99.90
12957;DHT22;6543;48.836;10.092;2023-03-14T10:02:50;14.20;99.90
12957;DHT22;6543;48.836;10.092;2023-03-14T10:05:20;11.70;99.90
12957;DHT22;6543;48.836;10.092;2023-03-14T10:07:51;13.70;99.90
12957;DHT22;6543;48.836;10.092;2023-03-14T10:10:22;13.60;99.90
12957;DHT22;6543;48.836;10.092;2023-03-14T10:12:56;14.50;99.90
12957;DHT22;6543;48.836;10.092;2023-03-14T10:15:26;13.30;99.90
12957;DHT22;6543;48.836;10.092;2023-03-14T10:17:53;13.80;99.90
12957;DHT22;6543;48.836;10.092;2023-03-14T10:20:30;13.90;99.90
12957;DHT22;6543;48.836;10.092;2023-03-14T10:23:02;13.90;99.90
12957;DHT22;6543;48.836;10.092;2023-03-14T10:25:33;13.90;99.90
12957;DHT22;6543;48.836;10.092;2023-03-14T10:28:02;14.00;99.90
12957;DHT22;6543;48.836;10.092;2023-03-14T10:30:37;13.70;99.90
12957;DHT22;6543;48.836;10.092;2023-03-14T10:33:11;14.00;99.90
12957;DHT22;6543;48.836;10.092;2023-03-14T10:35:42;14.30;99.90
12957;DHT22;6543;48.836;10.092;2023-03-14T10:38:13;14.10;99.90
12957;DHT22;6543;48.836;10.092;2023-03-14T10:40:47;14.10;99.90
12957;DHT22;6543;48.836;10.092;2023-03-14T10:43:17;14.50;99.90
12957;DHT22;6543;48.836;10.092;2023-03-14T10:45:52;15.60;99.90
12957;DHT22;6543;48.836;10.092;2023-03-14T10:48:29;12.40;99.90
12957;DHT22;6543;48.836;10.092;2023-03-14T10:50:59;13.90;99.90
12957;DHT22;6543;48.836;10.092;2023-03-14T10:53:33;13.60;99.90
12957;DHT22;6543;48.836;10.092;2023-03-14T10:56:04;13.50;99.90
12957;DHT22;6543;48.836;10.092;2023-03-14T10:58:37;13.70;99.90
12957;DHT22;6543;48.836;10.092;2023-03-14T11:04:16;13.50;99.90
12957;DHT22;6543;48.836;10.092;2023-03-14T11:06:50;13.60;99.90
12957;DHT22;6543;48.836;10.092;2023-03-14T11:09:24;13.70;99.90
12957;DHT22;6543;48.836;10.092;2023-03-14T11:11:58;13.80;99.90
12957;DHT22;6543;48.836;10.092;2023-03-14T11:14:32;13.80;99.90
12957;DHT22;6543;48.836;10.092;2023-03-14T11:17:08;14.00;99.90
12957;DHT22;6543;48.836;10.092;2023-03-14T11:20:04;13.00;99.90
12957;DHT22;6543;48.836;10.092;2023-03-14T11:22:43;14.50;99.90
12957;DHT22;6543;48.836;10.092;2023-03-14T11:25:21;14.60;99.90
12957;DHT22;6543;48.836;10.092;2023-03-14T11:28:02;14.40;99.90
12957;DHT22;6543;48.836;10.092;2023-03-14T11:30:48;14.60;99.90
12957;DHT22;6543;48.836;10.092;2023-03-14T11:33:24;12.30;99.90
12957;DHT22;6543;48.836;10.092;2023-03-14T11:35:58;14.20;99.90
12957;DHT22;6543;48.836;10.092;2023-03-14T11:38:30;11.90;99.90
12957;DHT22;6543;48.836;10.092;2023-03-14T11:41:00;12.50;99.90
12957;DHT22;6543;48.836;10.092;2023-03-14T11:43:33;14.10;99.90
12957;DHT22;6543;48.836;10.092;2023-03-14T11:46:09;14.10;99.90
12957;DHT22;6543;48.836;10.092;2023-03-14T11:48:44;13.80;99.90
12957;DHT22;6543;48.836;10.092;2023-03-14T11:51:17;13.60;99.90
12957;DHT22;6543;48.836;10.092;2023-03-14T11:53:54;14.10;99.90
12957;DHT22;6543;48.836;10.092;2023-03-14T11:56:27;14.30;99.90
12957;DHT22;6543;48.836;10.092;2023-03-14T11:58:59;12.80;99.90
12957;DHT22;6543;48.836;10.092;2023-03-14T12:01:39;12.70;99.90
12957;DHT22;6543;48.836;10.092;2023-03-14T12:04:13;12.60;99.90
12957;DHT22;6543;48.836;10.092;2023-03-14T12:07:07;12.40;99.90
12957;DHT22;6543;48.836;10.092;2023-03-14T12:09:37;12.20;99.90
12957;DHT22;6543;48.836;10.092;2023-03-14T12:12:06;13.10;99.90
12957;DHT22;6543;48.836;10.092;2023-03-14T12:14:44;11.90;99.90
12957;DHT22;6543;48.836;10.092;2023-03-14T12:17:19;11.90;99.90
12957;DHT22;6543;48.836;10.092;2023-03-14T12:19:47;11.90;99.90
12957;DHT22;6543;48.836;10.092;2023-03-14T12:22:27;13.70;99.90
12957;DHT22;6543;48.836;10.092;2023-03-14T12:25:02;12.00;99.90
12957;DHT22;6543;48.836;10.092;2023-03-14T12:27:47;11.40;99.90
12957;DHT22;6543;48.836;10.092;2023-03-14T12:30:26;12.70;99.90
12957;DHT22;6543;48.836;10.092;2023-03-14T12:39:20;10.90;99.90
12957;DHT22;6543;48.836;10.092;2023-03-14T12:41:52;10.90;99.90
12957;DHT22;6543;48.836;10.092;2023-03-14T12:44:39;11.00;99.90
12957;DHT22;6543;48.836;10.092;2023-03-14T12:47:43;10.90;99.90
12957;DHT22;6543;48.836;10.092;2023-03-14T12:50:18;10.90;99.90
12957;DHT22;6543;48.836;10.092;2023-03-14T12:55:45;10.80;99.90
12957;DHT22;6543;48.836;10.092;2023-03-14T12:58:17;10.70;99.90
12957;DHT22;6543;48.836;10.092;2023-03-14T13:00:55;10.60;99.90
12957;DHT22;6543;48.836;10.092;2023-03-14T13:03:27;10.60;99.90
12957;DHT22;6543;48.836;10.092;2023-03-14T13:06:03;10.50;99.90
12957;DHT22;6543;48.836;10.092;2023-03-14T13:08:39;10.50;99.90
12957;DHT22;6543;48.836;10.092;2023-03-14T13:11:09;11.00;99.90
12957;DHT22;6543;48.836;10.092;2023-03-14T13:13:42;10.90;99.90
12957;DHT22;6543;48.836;10.092;2023-03-14T13:16:14;10.20;99.90
12957;DHT22;6543;48.836;10.092;2023-03-14T13:18:45;10.30;99.90
12957;DHT22;6543;48.836;10.092;2023-03-14T13:21:15;10.40;99.90
12957;DHT22;6543;48.836;10.092;2023-03-14T13:23:55;11.00;99.90
12957;DHT22;6543;48.836;10.092;2023-03-14T13:26:24;10.60;99.90
12957;DHT22;6543;48.836;10.092;2023-03-14T13:28:53;12.00;99.90
12957;DHT22;6543;48.836;10.092;2023-03-14T13:31:23;10.60;99.90
12957;DHT22;6543;48.836;10.092;2023-03-14T13:34:05;11.10;99.90
12957;DHT22;6543;48.836;10.092;2023-03-14T13:36:35;10.80;99.90
12957;DHT22;6543;48.836;10.092;2023-03-14T13:39:06;12.10;99.90
12957;DHT22;6543;48.836;10.092;2023-03-14T13:41:37;8.70;99.90
12957;DHT22;6543;48.836;10.092;2023-03-14T13:44:07;10.60;99.90
12957;DHT22;6543;48.836;10.092;2023-03-14T13:46:35;10.30;99.90
12957;DHT22;6543;48.836;10.092;2023-03-14T13:49:05;9.40;99.90
12957;DHT22;6543;48.836;10.092;2023-03-14T13:51:32;9.50;99.90
12957;DHT22;6543;48.836;10.092;2023-03-14T13:54:00;10.40;99.90
12957;DHT22;6543;48.836;10.092;2023-03-14T13:56:30;9.90;99.90
12957;DHT22;6543;48.836;10.092;2023-03-14T13:58:58;9.20;99.90
12957;DHT22;6543;48.836;10.092;2023-03-14T14:01:26;9.30;99.90
12957;DHT22;6543;48.836;10.092;2023-03-14T14:03:55;9.40;99.90
12957;DHT22;6543;48.836;10.092;2023-03-14T14:06:29;9.30;99.90
12957;DHT22;6543;48.836;10.092;2023-03-14T14:08:58;9.50;99.90
12957;DHT22;6543;48.836;10.092;2023-03-14T14:11:34;9.40;99.90
12957;DHT22;6543;48.836;10.092;2023-03-14T14:14:06;9.20;99.90
12957;DHT22;6543;48.836;10.092;2023-03-14T14:16:35;9.30;99.90
12957;DHT22;6543;48.836;10.092;2023-03-14T14:19:02;9.20;99.90
12957;DHT22;6543;48.836;10.092;2023-03-14T14:21:31;9.10;99.90
12957;DHT22;6543;48.836;10.092;2023-03-14T14:23:58;9.50;99.90
12957;DHT22;6543;48.836;10.092;2023-03-14T14:26:26;9.20;99.90
12957;DHT22;6543;48.836;10.092;2023-03-14T14:29:02;9.20;99.90
12957;DHT22;6543;48.836;10.092;2023-03-14T14:31:29;9.20;99.90
12957;DHT22;6543;48.836;10.092;2023-03-14T14:33:57;9.20;99.90
12957;DHT22;6543;48.836;10.092;2023-03-14T14:36:28;9.20;99.90
12957;DHT22;6543;48.836;10.092;2023-03-14T14:39:04;9.20;99.90
12957;DHT22;6543;48.836;10.092;2023-03-14T14:41:33;9.10;99.90
12957;DHT22;6543;48.836;10.092;2023-03-14T14:44:03;9.20;99.90
12957;DHT22;6543;48.836;10.092;2023-03-14T14:46:32;9.20;99.90
12957;DHT22;6543;48.836;10.092;2023-03-14T14:49:05;9.50;99.90
12957;DHT22;6543;48.836;10.092;2023-03-14T14:51:34;9.30;99.90
12957;DHT22;6543;48.836;10.092;2023-03-14T14:54:15;9.30;99.90
12957;DHT22;6543;48.836;10.092;2023-03-14T14:56:47;9.20;99.90
12957;DHT22;6543;48.836;10.092;2023-03-14T14:59:21;9.20;99.90
12957;DHT22;6543;48.836;10.092;2023-03-14T15:01:49;9.20;99.90
12957;DHT22;6543;48.836;10.092;2023-03-14T15:04:17;9.20;99.90
12957;DHT22;6543;48.836;10.092;2023-03-14T15:06:45;9.10;99.90
12957;DHT22;6543;48.836;10.092;2023-03-14T15:09:15;9.50;99.90
12957;DHT22;6543;48.836;10.092;2023-03-14T15:11:43;9.20;99.90
12957;DHT22;6543;48.836;10.092;2023-03-14T15:14:10;9.10;99.90
12957;DHT22;6543;48.836;10.092;2023-03-14T15:16:39;9.00;99.90
12957;DHT22;6543;48.836;10.092;2023-03-14T15:19:12;9.10;99.90
12957;DHT22;6543;48.836;10.092;2023-03-14T15:21:41;9.50;99.90
12957;DHT22;6543;48.836;10.092;2023-03-14T15:24:09;9.40;99.90
12957;DHT22;6543;48.836;10.092;2023-03-14T15:26:38;10.10;99.90
12957;DHT22;6543;48.836;10.092;2023-03-14T15:29:05;9.00;99.90
12957;DHT22;6543;48.836;10.092;2023-03-14T15:31:33;8.90;99.90
12957;DHT22;6543;48.836;10.092;2023-03-14T15:34:00;8.80;99.90
12957;DHT22;6543;48.836;10.092;2023-03-14T15:36:29;8.80;99.90
12957;DHT22;6543;48.836;10.092;2023-03-14T15:38:57;8.70;99.90
12957;DHT22;6543;48.836;10.092;2023-03-14T15:41:25;8.80;99.90
12957;DHT22;6543;48.836;10.092;2023-03-14T15:43:53;8.80;99.90
12957;DHT22;6543;48.836;10.092;2023-03-14T15:46:21;8.70;99.90
12957;DHT22;6543;48.836;10.092;2023-03-14T15:48:48;8.60;99.90
12957;DHT22;6543;48.836;10.092;2023-03-14T15:51:16;8.60;99.90
12957;DHT22;6543;48.836;10.092;2023-03-14T15:53:43;9.00;99.90
12957;DHT22;6543;48.836;10.092;2023-03-14T15:56:12;8.50;99.90
12957;DHT22;6543;48.836;10.092;2023-03-14T15:58:39;8.50;99.90
12957;DHT22;6543;48.836;10.092;2023-03-14T16:01:08;8.50;99.90
12957;DHT22;6543;48.836;10.092;2023-03-14T16:03:35;8.50;99.90
12957;DHT22;6543;48.836;10.092;2023-03-14T16:06:02;7.70;99.90
12957;DHT22;6543;48.836;10.092;2023-03-14T16:08:30;8.60;99.90
12957;DHT22;6543;48.836;10.092;2023-03-14T16:10:59;6.80;99.90